Bookmark and Share
Track history (hours):
 

Jennifer Rickmers

Last reported at 2014-Apr-19 06:33 UTC. Time now 2014-Apr-19 07:08 UTC.
Position N 51°20' E 004°21'.

Length 294 m; draft 11.9 m.

Type: Ship (hazmat cat A). MMSI: 636091044.

NotesDate/timePositionNaut miles runAvg speedWind from/ knotsBaromVisibWave heightAir tempDewpointWater temp
2014-Apr-19 06:33N 51°20' E 004°21'0 0.0
2014-Apr-19 05:33N 51°20' E 004°20'0 0.0
2014-Apr-19 04:33N 51°20' E 004°21'0 0.0
2014-Apr-19 03:33N 51°20' E 004°21'2 1.8
2014-Apr-19 02:33N 51°20' E 004°18'1 0.7
2014-Apr-19 01:34N 51°21' E 004°17'0 0.1
2014-Apr-19 00:33N 51°21' E 004°17'6 6.4
2014-Apr-18 23:33N 51°22' E 004°07'8 8.3
2014-Apr-18 22:33N 51°21' E 003°54'1110.7
2014-Apr-18 21:33N 51°26' E 003°38'1212.2
2014-Apr-18 20:33N 51°24' E 003°19'1514.9
2014-Apr-18 19:33N 51°22' E 002°55'1111.4
2014-Apr-18 18:33N 51°22' E 002°37'1414.1
2014-Apr-18 17:33N 51°17' E 002°16'1818.4
2014-Apr-18 16:34N 51°09' E 001°50'2120.0
2014-Apr-18 15:32N 50°54' E 001°27'2019.8
2014-Apr-18 14:32N 50°37' E 001°12'2620.5
2014-Apr-18 13:15N 50°26' E 000°34'39119.7
2014-Apr-17 17:27N 49°05' W 009°18'  
2014-Apr-11 22:23N 40°22' W 068°46'1518.2
2014-Apr-11 21:33N 40°25' W 069°05'1818.2
2014-Apr-11 20:33N 40°26' W 069°29'1918.5
2014-Apr-11 19:31N 40°25' W 069°54'1818.5
2014-Apr-11 18:33N 40°25' W 070°18'1918.5
2014-Apr-11 17:33N 40°24' W 070°42'1918.7
2014-Apr-11 16:33N 40°24' W 071°07'1918.6
2014-Apr-11 15:34N 40°23' W 071°31'1918.7
2014-Apr-11 14:34N 40°23' W 071°55'1918.8
2014-Apr-11 13:33N 40°23' W 072°20'1918.8
2014-Apr-11 12:33N 40°22' W 072°45'2019.8
2014-Apr-11 11:33N 40°22' W 073°11'1615.9
2014-Apr-11 10:33N 40°24' W 073°31'9 9.1
2014-Apr-11 09:33N 40°26' W 073°43'9 9.2
2014-Apr-11 08:33N 40°29' W 073°55'1212.0
2014-Apr-11 07:33N 40°39' W 074°04'4 3.6
2014-Apr-11 06:33N 40°40' W 074°08'1 0.9
2014-Apr-11 05:33N 40°41' W 074°09'0 0.0
2014-Apr-11 04:33N 40°41' W 074°09'0 0.0
2014-Apr-11 03:33N 40°41' W 074°09'0 0.0
2014-Apr-11 02:33N 40°41' W 074°09'0 0.0
2014-Apr-11 01:33N 40°41' W 074°09'0 0.0
2014-Apr-11 00:33N 40°41' W 074°09'0 0.0
2014-Apr-10 23:30N 40°41' W 074°09'0 0.0
2014-Apr-10 22:33N 40°41' W 074°09'0 0.0
2014-Apr-10 21:33N 40°41' W 074°09'0 0.0
2014-Apr-10 20:03N 40°41' W 074°09'0 0.0
2014-Apr-10 19:30N 40°41' W 074°09'0 0.0
2014-Apr-10 18:30N 40°41' W 074°09'0 0.0
2014-Apr-10 17:33N 40°41' W 074°09'0 0.0
2014-Apr-10 16:30N 40°41' W 074°09'0 0.0
2014-Apr-10 15:27N 40°41' W 074°09'0 0.0
2014-Apr-10 14:33N 40°41' W 074°09'0 0.0
2014-Apr-10 13:33N 40°41' W 074°09'0 0.0
2014-Apr-10 12:33N 40°41' W 074°09'0 0.0
2014-Apr-10 11:30N 40°41' W 074°09'0 0.0
2014-Apr-10 10:33N 40°41' W 074°09'0 0.0
2014-Apr-10 09:33N 40°41' W 074°09'1 1.4
2014-Apr-10 08:33N 40°40' W 074°09'5 4.9
2014-Apr-10 07:33N 40°37' W 074°03'1211.7
2014-Apr-10 06:33N 40°29' W 073°53'7 6.4
2014-Apr-10 05:24N 40°23' W 073°47'7 7.6
2014-Apr-10 04:31N 40°16' W 073°46'2311.6
2014-Apr-10 02:33N 39°53' W 073°42'1110.8
2014-Apr-10 01:33N 39°44' W 073°35'1 1.1
2014-Apr-10 00:33N 39°45' W 073°34'1 0.9
2014-Apr-09 23:33N 39°46' W 073°35'0 0.2
2014-Apr-09 22:32N 39°46' W 073°35'0 0.2
2014-Apr-09 21:26N 39°46' W 073°35'10 5.5
2014-Apr-09 19:33N 39°37' W 073°42'  

Dump ship's entire track history

sailing weather and tide predictions

Jennifer Rickmers — A8IV7 — position and weather